Terminal Aerodrome Forecast
Issued by NWS Boston, MA

Home | Current Version | Previous Version | Text Only | Print | Product List | Glossary On
Versions: 1 2 3 4 5 6 7 8 9 10 11 12 13 14 15 16 17 18 19 20 21 22 23 24 25 26 27 28 29 30 31 32 33 34 35 36 37 38 39 40 41
000
FTUS41 KBOX 262335
TAFPVD
TAF
KPVD 262335Z 2700/2724 22014G22KT P6SM FEW120 BKN250
     FM270300 21008KT P6SM BKN250 WS020/23040KT
     FM270900 20006KT 3SM BR BKN030
     FM271200 20009KT 3SM BR BKN015
     FM271500 20010KT 5SM BR BKN025
     FM271800 20014KT P6SM BKN050
     FM272100 21016KT 5SM BR BKN250=

USA.gov is the U.S. government's official web portal to all federal, state and local government web resources and services.